Time;durP1;ratioP1;P1;durP2;ratioP2;P2;SDS_P1;SDS_P2;PMS_P1;PMS_P2;Temp;Humidity;BMP_temperature;BMP_pressure;BME280_temperature;BME280_humidity;BME280_pressure;Samples;Min_cycle;Max_cycle;Signal;HPM_P1;HPM_P2
2024/02/19 00:01:05;;;;;;;1.20;0.70;;;;;;;-146.29;100.00;59205.81;5035116;28;20183;-69
2024/02/19 00:03:31;;;;;;;0.90;0.60;;;;;;;-146.29;100.00;59205.81;5029944;28;20374;-69
2024/02/19 00:05:57;;;;;;;1.00;0.70;;;;;;;-146.29;100.00;59205.81;5026683;28;20425;-70
2024/02/19 00:08:23;;;;;;;0.83;0.60;;;;;;;-146.29;100.00;59205.81;5031509;28;20566;-69
2024/02/19 00:10:48;;;;;;;1.63;0.83;;;;;;;-146.29;100.00;59205.81;5032907;28;20194;-69
2024/02/19 00:13:14;;;;;;;0.80;0.60;;;;;;;-146.29;100.00;59205.81;5026480;28;20271;-70
2024/02/19 00:15:39;;;;;;;0.93;0.63;;;;;;;-146.29;100.00;59205.81;5029218;28;20203;-70
2024/02/19 00:18:06;;;;;;;0.90;0.70;;;;;;;-146.29;100.00;59205.81;5027317;28;20260;-70
2024/02/19 00:20:31;;;;;;;0.90;0.60;;;;;;;-146.29;100.00;59205.81;5026794;28;20191;-71
2024/02/19 00:22:57;;;;;;;1.10;0.70;;;;;;;-146.29;100.00;59205.81;5030961;28;21867;-69
2024/02/19 00:25:22;;;;;;;0.80;0.60;;;;;;;-146.29;100.00;59205.81;5024742;28;20180;-68
2024/02/19 00:27:49;;;;;;;0.90;0.70;;;;;;;-146.29;100.00;59205.81;5024387;28;20184;-70
2024/02/19 00:30:14;;;;;;;0.80;0.60;;;;;;;-146.29;100.00;59205.81;5028877;28;20219;-70
2024/02/19 00:32:40;;;;;;;1.00;0.60;;;;;;;-146.29;100.00;59205.81;5029058;28;20462;-69
2024/02/19 00:35:05;;;;;;;0.80;0.57;;;;;;;-146.29;100.00;59205.81;5031195;28;20270;-69
2024/02/19 00:37:31;;;;;;;1.00;0.60;;;;;;;-146.29;100.00;59205.81;5028668;28;20179;-69
2024/02/19 00:39:57;;;;;;;1.20;0.70;;;;;;;-146.29;100.00;59205.81;5028606;28;20210;-71
2024/02/19 00:42:24;;;;;;;1.13;0.60;;;;;;;-146.29;100.00;59205.81;5029604;28;20190;-70
2024/02/19 00:44:50;;;;;;;0.80;0.50;;;;;;;-146.29;100.00;59205.81;5033337;28;20505;-71
2024/02/19 00:47:15;;;;;;;0.90;0.60;;;;;;;-146.29;100.00;59205.81;5030702;28;20898;-70
2024/02/19 00:49:40;;;;;;;1.00;0.60;;;;;;;-146.29;100.00;59205.81;5020114;28;20302;-69
2024/02/19 00:52:06;;;;;;;1.20;0.50;;;;;;;-146.29;100.00;59205.81;5028593;28;20191;-69
2024/02/19 00:54:31;;;;;;;1.70;1.07;;;;;;;-146.29;100.00;59205.81;5035325;28;20196;-69
2024/02/19 00:56:57;;;;;;;1.87;0.70;;;;;;;-146.29;100.00;59205.81;5040210;28;20179;-70
2024/02/19 00:59:22;;;;;;;0.93;0.50;;;;;;;-146.29;100.00;59205.81;5033648;28;20821;-70
2024/02/19 01:01:48;;;;;;;1.00;0.60;;;;;;;-146.29;100.00;59205.81;5034505;28;20274;-70
2024/02/19 01:04:13;;;;;;;0.80;0.60;;;;;;;-146.29;100.00;59205.81;5032241;28;20268;-70
2024/02/19 01:06:39;;;;;;;0.97;0.60;;;;;;;-146.29;100.00;59205.81;5028477;28;20191;-69
2024/02/19 01:09:04;;;;;;;0.90;0.60;;;;;;;-146.29;100.00;59205.81;5028352;28;20212;-69
2024/02/19 01:11:30;;;;;;;2.50;0.60;;;;;;;-146.29;100.00;59205.81;5029015;28;20627;-69
2024/02/19 01:13:55;;;;;;;0.90;0.60;;;;;;;-146.29;100.00;59205.81;5028163;28;20443;-68
2024/02/19 01:16:21;;;;;;;0.80;0.50;;;;;;;-146.29;100.00;59205.81;5030345;28;20728;-70
2024/02/19 01:18:47;;;;;;;0.80;0.50;;;;;;;-146.29;100.00;59205.81;5033761;28;20200;-71
2024/02/19 01:21:12;;;;;;;0.80;0.63;;;;;;;-146.29;100.00;59205.81;5030332;28;20649;-69
2024/02/19 01:23:38;;;;;;;3.60;0.70;;;;;;;-146.29;100.00;59205.81;5039586;28;20194;-69
2024/02/19 01:26:03;;;;;;;0.80;0.60;;;;;;;-146.29;100.00;59205.81;5025267;28;21049;-69
2024/02/19 01:28:29;;;;;;;1.30;0.83;;;;;;;-146.29;100.00;59205.81;5028740;28;20704;-71
2024/02/19 01:30:54;;;;;;;2.47;1.63;;;;;;;-146.29;100.00;59205.81;5035767;28;20661;-69
2024/02/19 01:33:21;;;;;;;0.90;0.70;;;;;;;-146.29;100.00;59205.81;5027939;28;20187;-69
2024/02/19 01:35:47;;;;;;;1.47;0.63;;;;;;;-146.29;100.00;59205.81;5035500;28;20183;-69
2024/02/19 01:38:12;;;;;;;1.43;0.70;;;;;;;-146.29;100.00;59205.81;5034511;28;20430;-69
2024/02/19 01:40:38;;;;;;;0.80;0.50;;;;;;;-146.29;100.00;59205.81;5033981;28;20484;-70
2024/02/19 01:43:04;;;;;;;0.87;0.60;;;;;;;-146.29;100.00;59205.81;5045536;28;20206;-71
2024/02/19 01:45:30;;;;;;;0.80;0.50;;;;;;;-146.29;100.00;59205.81;5042115;28;20210;-72
2024/02/19 01:47:56;;;;;;;0.80;0.60;;;;;;;-146.29;100.00;59205.81;5043964;28;20414;-72
2024/02/19 01:50:22;;;;;;;0.87;0.60;;;;;;;-146.29;100.00;59205.81;5047832;28;20278;-70
2024/02/19 01:52:49;;;;;;;2.60;0.63;;;;;;;-146.29;100.00;59205.81;5052803;28;20503;-72
2024/02/19 01:55:15;;;;;;;1.67;0.70;;;;;;;-146.29;100.00;59205.81;5048208;28;20895;-72
2024/02/19 01:57:42;;;;;;;1.93;0.50;;;;;;;-146.29;100.00;59205.81;5046886;28;20449;-72
2024/02/19 02:00:10;;;;;;;0.80;0.50;;;;;;;-146.29;100.00;59205.81;5043187;28;20528;-70
2024/02/19 02:02:37;;;;;;;0.80;0.50;;;;;;;-146.29;100.00;59205.81;5042533;28;20449;-71
2024/02/19 02:05:03;;;;;;;0.80;0.60;;;;;;;-146.29;100.00;59205.81;5046883;28;20445;-71
2024/02/19 02:07:29;;;;;;;2.13;0.50;;;;;;;-146.29;100.00;59205.81;5032658;28;20415;-69
2024/02/19 02:09:54;;;;;;;0.80;0.43;;;;;;;-146.29;100.00;59205.81;5040186;28;20329;-71
2024/02/19 02:12:20;;;;;;;0.80;0.50;;;;;;;-146.29;100.00;59205.81;5031275;28;20419;-70
2024/02/19 02:14:45;;;;;;;0.70;0.40;;;;;;;-146.29;100.00;59205.81;5030740;28;20184;-70
2024/02/19 02:17:11;;;;;;;0.87;0.50;;;;;;;-146.29;100.00;59205.81;5032613;28;20682;-69
2024/02/19 02:19:41;;;;;;;4.70;0.50;;;;;;;-146.29;100.00;59205.81;5030124;28;20199;-69
2024/02/19 02:22:07;;;;;;;0.80;0.50;;;;;;;-146.29;100.00;59205.81;5028152;28;20423;-70
2024/02/19 02:24:32;;;;;;;0.80;0.50;;;;;;;-146.29;100.00;59205.81;5030623;28;20414;-69
2024/02/19 02:26:58;;;;;;;0.70;0.40;;;;;;;-146.29;100.00;59205.81;5035898;28;20453;-70
2024/02/19 02:29:24;;;;;;;1.37;0.53;;;;;;;-146.29;100.00;59205.81;5029472;28;20314;-69
2024/02/19 02:31:49;;;;;;;0.80;0.57;;;;;;;-146.29;100.00;59205.81;5040299;28;20187;-71
2024/02/19 02:34:15;;;;;;;0.90;0.60;;;;;;;-146.29;100.00;59205.81;5042371;28;20179;-70
2024/02/19 02:36:40;;;;;;;1.40;0.50;;;;;;;-146.29;100.00;59205.81;5030779;28;20558;-71
2024/02/19 02:39:06;;;;;;;0.80;0.50;;;;;;;-146.29;100.00;59205.81;5028689;28;20190;-70
2024/02/19 02:41:32;;;;;;;0.80;0.50;;;;;;;-146.29;100.00;59205.81;5038201;28;20198;-72
2024/02/19 02:43:57;;;;;;;1.20;0.63;;;;;;;-146.29;100.00;59205.81;5032854;28;20438;-69
2024/02/19 02:46:23;;;;;;;0.90;0.60;;;;;;;-146.29;100.00;59205.81;5037336;28;20171;-70
2024/02/19 02:48:48;;;;;;;1.00;0.60;;;;;;;-146.29;100.00;59205.81;5039158;28;20227;-70
2024/02/19 02:51:14;;;;;;;1.07;0.70;;;;;;;-146.29;100.00;59205.81;5036125;28;20275;-70
2024/02/19 02:53:39;;;;;;;2.90;0.70;;;;;;;-146.29;100.00;59205.81;5032944;28;20215;-70
2024/02/19 02:56:05;;;;;;;1.30;0.70;;;;;;;-146.29;100.00;59205.81;5030808;28;20184;-71
2024/02/19 02:58:32;;;;;;;1.13;0.70;;;;;;;-146.29;100.00;59205.81;5029541;28;20199;-69
2024/02/19 03:00:58;;;;;;;0.97;0.70;;;;;;;-146.29;100.00;59205.81;5032862;28;20192;-69
2024/02/19 03:03:23;;;;;;;0.80;0.60;;;;;;;-146.29;100.00;59205.81;5028633;28;20417;-69
2024/02/19 03:05:48;;;;;;;1.40;0.80;;;;;;;-146.29;100.00;59205.81;5038409;28;20271;-70
2024/02/19 03:08:14;;;;;;;1.07;0.80;;;;;;;-146.29;100.00;59205.81;5031283;28;20287;-69
2024/02/19 03:10:39;;;;;;;1.10;0.90;;;;;;;-146.29;100.00;59205.81;5025943;28;20560;-70
2024/02/19 03:13:05;;;;;;;2.03;1.00;;;;;;;-146.29;100.00;59205.81;5035437;28;20179;-70
2024/02/19 03:15:30;;;;;;;2.10;0.90;;;;;;;-146.29;100.00;59205.81;5034269;28;20236;-72
2024/02/19 03:17:56;;;;;;;2.40;0.83;;;;;;;-146.29;100.00;59205.81;5028716;28;20638;-70
2024/02/19 03:20:23;;;;;;;1.00;0.87;;;;;;;-146.29;100.00;59205.81;5042634;28;20294;-70
2024/02/19 03:22:49;;;;;;;2.40;1.00;;;;;;;-146.29;100.00;59205.81;5032298;28;20557;-70
2024/02/19 03:25:14;;;;;;;2.03;1.00;;;;;;;-146.29;100.00;59205.81;5037974;28;20429;-70
2024/02/19 03:27:40;;;;;;;1.63;1.07;;;;;;;-146.29;100.00;59205.81;5029069;28;20183;-70
2024/02/19 03:30:06;;;;;;;1.30;1.13;;;;;;;-146.29;100.00;59205.81;5032861;28;20199;-72
2024/02/19 03:32:32;;;;;;;1.10;0.90;;;;;;;-146.29;100.00;59205.81;5031228;28;20251;-70
2024/02/19 03:34:57;;;;;;;1.80;1.30;;;;;;;-146.29;100.00;59205.81;5038315;28;20414;-70
2024/02/19 03:37:23;;;;;;;1.30;1.20;;;;;;;-146.29;100.00;59205.81;5042323;28;20717;-71
2024/02/19 03:39:49;;;;;;;1.70;1.10;;;;;;;-146.29;100.00;59205.81;5027318;28;20195;-70
2024/02/19 03:42:15;;;;;;;2.17;1.10;;;;;;;-146.29;100.00;59205.81;5032756;28;20184;-71
2024/02/19 03:44:40;;;;;;;1.57;1.20;;;;;;;-146.29;100.00;59205.81;5029407;28;20196;-70
2024/02/19 03:47:07;;;;;;;1.50;1.27;;;;;;;-146.29;100.00;59205.81;5027613;28;20543;-71
2024/02/19 03:49:32;;;;;;;1.40;1.30;;;;;;;-146.29;100.00;59205.81;5030876;28;20671;-71
2024/02/19 03:51:58;;;;;;;2.37;1.30;;;;;;;-146.29;100.00;59205.81;5032233;28;20495;-70
2024/02/19 03:54:24;;;;;;;1.33;1.07;;;;;;;-146.29;100.00;59205.81;5030449;28;20708;-70
2024/02/19 03:56:51;;;;;;;1.60;1.10;;;;;;;-146.29;100.00;59205.81;5027653;28;20202;-68
2024/02/19 03:59:17;;;;;;;3.90;1.57;;;;;;;-146.29;100.00;59205.81;5036416;28;20437;-70
2024/02/19 04:01:42;;;;;;;1.20;1.10;;;;;;;-146.29;100.00;59205.81;5033685;28;20437;-69
2024/02/19 04:04:08;;;;;;;1.40;1.20;;;;;;;-146.29;100.00;59205.81;5026055;28;20834;-71
2024/02/19 04:06:33;;;;;;;1.27;1.00;;;;;;;-146.29;100.00;59205.81;5037366;28;20839;-69
2024/02/19 04:08:58;;;;;;;1.20;1.00;;;;;;;-146.29;100.00;59205.81;5030730;28;20212;-69
2024/02/19 04:11:24;;;;;;;2.60;1.00;;;;;;;-146.29;100.00;59205.81;5043155;28;20305;-69
2024/02/19 04:13:49;;;;;;;1.63;1.33;;;;;;;-146.29;100.00;59205.81;5027682;28;20195;-69
2024/02/19 04:16:15;;;;;;;1.30;1.03;;;;;;;-146.29;100.00;59205.81;5031404;28;20214;-70
2024/02/19 04:18:40;;;;;;;1.40;1.20;;;;;;;-146.29;100.00;59205.81;5032587;28;20206;-72
2024/02/19 04:21:06;;;;;;;2.80;0.90;;;;;;;-146.29;100.00;59205.81;5048524;28;20179;-71
2024/02/19 04:23:31;;;;;;;1.63;0.90;;;;;;;-146.29;100.00;59205.81;5037875;28;20673;-69
2024/02/19 04:25:57;;;;;;;1.40;1.00;;;;;;;-146.29;100.00;59205.81;5039435;28;20186;-70
2024/02/19 04:28:22;;;;;;;1.50;1.07;;;;;;;-146.29;100.00;59205.81;5041827;28;20199;-70
2024/02/19 04:30:48;;;;;;;1.27;1.00;;;;;;;-146.29;100.00;59205.81;5034510;28;20175;-70
2024/02/19 04:33:13;;;;;;;2.40;0.80;;;;;;;-146.29;100.00;59205.81;5036199;28;20572;-69
2024/02/19 04:35:38;;;;;;;1.20;1.10;;;;;;;-146.29;100.00;59205.81;5037068;28;20183;-69
2024/02/19 04:38:04;;;;;;;1.47;0.90;;;;;;;-146.29;100.00;59205.81;5037089;28;20176;-69
2024/02/19 04:40:29;;;;;;;1.60;1.00;;;;;;;-146.29;100.00;59205.81;5031125;28;20306;-70
2024/02/19 04:42:55;;;;;;;1.27;1.17;;;;;;;-146.29;100.00;59205.81;5033057;28;20814;-70
2024/02/19 04:45:20;;;;;;;1.40;1.30;;;;;;;-146.29;100.00;59205.81;5028362;28;20266;-70
2024/02/19 04:47:46;;;;;;;1.70;1.60;;;;;;;-146.29;100.00;59205.81;5030702;28;20286;-71
2024/02/19 04:50:11;;;;;;;4.00;2.10;;;;;;;-146.29;100.00;59205.81;5036063;28;20290;-69
2024/02/19 04:52:36;;;;;;;1.87;1.50;;;;;;;-146.29;100.00;59205.81;5032028;28;20188;-70
2024/02/19 04:55:03;;;;;;;2.20;2.00;;;;;;;-146.29;100.00;59205.81;5029604;28;20545;-69
2024/02/19 04:57:28;;;;;;;2.50;1.80;;;;;;;-146.29;100.00;59205.81;5030069;28;20180;-69
2024/02/19 04:59:53;;;;;;;4.40;1.80;;;;;;;-146.29;100.00;59205.81;5030628;28;20452;-71
2024/02/19 05:02:19;;;;;;;3.10;2.43;;;;;;;-146.29;100.00;59205.81;5035364;28;20175;-71
2024/02/19 05:04:44;;;;;;;2.67;2.40;;;;;;;-146.29;100.00;59205.81;5036806;28;20205;-72
2024/02/19 05:07:10;;;;;;;3.90;2.70;;;;;;;-146.29;100.00;59205.81;5039121;28;20189;-70
2024/02/19 05:09:35;;;;;;;3.20;2.43;;;;;;;-146.29;100.00;59205.81;5034032;28;20294;-70
2024/02/19 05:12:00;;;;;;;5.27;2.77;;;;;;;-146.29;100.00;59205.81;5033857;28;20190;-69
2024/02/19 05:14:26;;;;;;;4.37;2.70;;;;;;;-146.29;100.00;59205.81;5038087;28;20667;-70
2024/02/19 05:16:51;;;;;;;2.80;2.50;;;;;;;-146.29;100.00;59205.81;5025095;28;20176;-71
2024/02/19 05:19:17;;;;;;;6.93;3.10;;;;;;;-146.29;100.00;59205.81;5034528;28;20191;-69
2024/02/19 05:21:43;;;;;;;4.80;2.73;;;;;;;-146.29;100.00;59205.81;5035335;28;20645;-69
2024/02/19 05:24:08;;;;;;;2.80;2.60;;;;;;;-146.29;100.00;59205.81;5037135;28;20172;-70
2024/02/19 05:26:34;;;;;;;3.80;2.40;;;;;;;-146.29;100.00;59205.81;5036378;28;20989;-70
2024/02/19 05:29:00;;;;;;;4.30;2.93;;;;;;;-146.29;100.00;59205.81;5035240;28;20246;-70
2024/02/19 05:31:36;;;;;;;4.93;3.00;;;;;;;-146.29;100.00;59205.81;5029014;28;20180;-70
2024/02/19 05:34:03;;;;;;;6.37;3.10;;;;;;;-146.29;100.00;59205.81;5030540;28;20186;-70
2024/02/19 05:36:28;;;;;;;5.43;3.03;;;;;;;-146.29;100.00;59205.81;5033804;28;20445;-70
2024/02/19 05:38:54;;;;;;;9.43;3.00;;;;;;;-146.29;100.00;59205.81;5039257;28;20445;-72
2024/02/19 05:41:20;;;;;;;7.70;3.30;;;;;;;-146.29;100.00;59205.81;5029743;28;20711;-71
2024/02/19 05:43:46;;;;;;;4.57;3.40;;;;;;;-146.29;100.00;59205.81;5026771;28;20648;-70
2024/02/19 05:46:14;;;;;;;6.80;2.77;;;;;;;-146.29;100.00;59205.81;5032705;28;20184;-70
2024/02/19 05:48:40;;;;;;;5.43;3.17;;;;;;;-146.29;100.00;59205.81;5039329;28;20830;-69
2024/02/19 05:51:06;;;;;;;6.50;3.53;;;;;;;-146.29;100.00;59205.81;5038708;28;20493;-70
2024/02/19 05:53:32;;;;;;;6.90;3.13;;;;;;;-146.29;100.00;59205.81;5029929;28;20442;-69
2024/02/19 05:55:57;;;;;;;6.43;3.33;;;;;;;-146.29;100.00;59205.81;5029072;28;20586;-70
2024/02/19 05:58:23;;;;;;;7.40;3.73;;;;;;;-146.29;100.00;59205.81;5029002;28;20439;-69
2024/02/19 06:00:48;;;;;;;7.87;3.50;;;;;;;-146.29;100.00;59205.81;5033421;28;20301;-70
2024/02/19 06:03:14;;;;;;;7.10;3.37;;;;;;;-146.29;100.00;59205.81;5039644;28;20587;-70
2024/02/19 06:05:40;;;;;;;7.23;3.70;;;;;;;-146.29;100.00;59205.81;5032366;28;20270;-71
2024/02/19 06:08:06;;;;;;;4.90;3.13;;;;;;;-146.29;100.00;59205.81;5034940;28;20201;-68
2024/02/19 06:10:31;;;;;;;7.50;3.70;;;;;;;-146.29;100.00;59205.81;5031003;28;20216;-69
2024/02/19 06:12:57;;;;;;;5.30;3.20;;;;;;;-146.29;100.00;59205.81;5027999;28;20415;-70
2024/02/19 06:15:24;;;;;;;7.97;3.97;;;;;;;-146.29;100.00;59205.81;5035078;28;20194;-70
2024/02/19 06:17:50;;;;;;;6.13;4.37;;;;;;;-146.29;100.00;59205.81;5031956;28;20517;-71
2024/02/19 06:20:15;;;;;;;7.13;4.33;;;;;;;-146.29;100.00;59205.81;5034256;28;20444;-70
2024/02/19 06:22:41;;;;;;;5.53;3.50;;;;;;;-146.29;100.00;59205.81;5032684;28;20191;-70
2024/02/19 06:25:08;;;;;;;7.97;3.27;;;;;;;-146.29;100.00;59205.81;5028545;28;20207;-70
2024/02/19 06:27:33;;;;;;;4.90;3.37;;;;;;;-146.29;100.00;59205.81;5033631;28;20191;-69
2024/02/19 06:29:59;;;;;;;5.33;3.37;;;;;;;-146.29;100.00;59205.81;5035287;28;20466;-71
2024/02/19 06:32:24;;;;;;;5.07;3.20;;;;;;;-146.29;100.00;59205.81;5032121;28;20254;-70
2024/02/19 06:34:50;;;;;;;3.83;3.03;;;;;;;-146.29;100.00;59205.81;5030040;28;20211;-70
2024/02/19 06:37:15;;;;;;;7.13;3.43;;;;;;;-146.29;100.00;59205.81;5036630;28;20209;-70
2024/02/19 06:39:41;;;;;;;5.57;3.57;;;;;;;-146.29;100.00;59205.81;5030160;28;20295;-70
2024/02/19 06:42:07;;;;;;;4.63;3.10;;;;;;;-146.29;100.00;59205.81;5037931;28;20848;-71
2024/02/19 06:44:32;;;;;;;2.60;2.40;;;;;;;-146.29;100.00;59205.81;5033814;28;20262;-70
2024/02/19 06:46:58;;;;;;;4.73;3.50;;;;;;;-146.29;100.00;59205.81;5032960;28;20419;-70
2024/02/19 06:49:23;;;;;;;6.43;3.10;;;;;;;-146.29;100.00;59205.81;5029917;28;20806;-70
2024/02/19 06:51:50;;;;;;;5.87;3.13;;;;;;;-146.29;100.00;59205.81;5029563;28;20195;-70
2024/02/19 06:54:15;;;;;;;5.07;3.40;;;;;;;-146.29;100.00;59205.81;5032920;28;20237;-69
2024/02/19 06:56:41;;;;;;;3.47;2.43;;;;;;;-146.29;100.00;59205.81;5027945;28;21062;-69
2024/02/19 06:59:06;;;;;;;6.63;2.80;;;;;;;-146.29;100.00;59205.81;5032864;28;20192;-71
2024/02/19 07:01:32;;;;;;;5.43;3.30;;;;;;;-146.29;100.00;59205.81;5030495;28;20192;-70
2024/02/19 07:03:57;;;;;;;4.37;2.83;;;;;;;-146.29;100.00;59205.81;5034333;28;20262;-70
2024/02/19 07:06:23;;;;;;;5.80;3.13;;;;;;;-146.29;100.00;59205.81;5032098;28;20606;-69
2024/02/19 07:08:48;;;;;;;6.80;3.30;;;;;;;-146.29;100.00;59205.81;5027542;28;20298;-69
2024/02/19 07:11:14;;;;;;;3.00;2.80;;;;;;;-146.29;100.00;59205.81;5033493;28;20241;-70
2024/02/19 07:13:39;;;;;;;7.20;2.93;;;;;;;-146.29;100.00;59205.81;5027317;28;20672;-70
2024/02/19 07:16:05;;;;;;;5.60;3.00;;;;;;;-146.29;100.00;59205.81;5030809;28;20201;-70
2024/02/19 07:18:30;;;;;;;7.00;2.97;;;;;;;-146.29;100.00;59205.81;5031432;28;20628;-70
2024/02/19 07:20:56;;;;;;;6.20;2.60;;;;;;;-146.29;100.00;59205.81;5027191;28;20704;-71
2024/02/19 07:23:21;;;;;;;5.77;2.70;;;;;;;-146.29;100.00;59205.81;5031825;28;20616;-70
2024/02/19 07:25:47;;;;;;;3.27;2.37;;;;;;;-146.29;100.00;59205.81;5029993;28;20233;-70
2024/02/19 07:28:12;;;;;;;4.67;2.10;;;;;;;-146.29;100.00;59205.81;5037809;28;20313;-69
2024/02/19 07:30:38;;;;;;;2.87;1.87;;;;;;;-146.29;100.00;59205.81;5037197;28;20190;-70
2024/02/19 07:33:06;;;;;;;4.00;2.00;;;;;;;-146.29;100.00;59205.81;5034592;28;20265;-70
2024/02/19 07:35:31;;;;;;;3.70;2.20;;;;;;;-146.29;100.00;59205.81;5034277;28;20183;-70
2024/02/19 07:37:57;;;;;;;4.27;2.20;;;;;;;-146.29;100.00;59205.81;5024692;28;20425;-71
2024/02/19 07:40:23;;;;;;;4.23;1.80;;;;;;;-146.29;100.00;59205.81;5033716;28;20198;-69
2024/02/19 07:42:48;;;;;;;2.60;1.87;;;;;;;-146.29;100.00;59205.81;5034884;28;20658;-69
2024/02/19 07:45:14;;;;;;;3.60;2.07;;;;;;;-146.29;100.00;59205.81;5036187;28;20259;-70
2024/02/19 07:47:40;;;;;;;6.10;1.83;;;;;;;-146.29;100.00;59205.81;5027387;28;20182;-69
2024/02/19 07:50:05;;;;;;;4.80;1.80;;;;;;;-146.29;100.00;59205.81;5029076;28;20211;-71
2024/02/19 07:52:31;;;;;;;5.23;1.43;;;;;;;-146.29;100.00;59205.81;5034240;28;20187;-71
2024/02/19 07:54:56;;;;;;;4.80;1.60;;;;;;;-146.29;100.00;59205.81;5029701;28;20534;-70
2024/02/19 07:57:21;;;;;;;3.70;1.77;;;;;;;-146.29;100.00;59205.81;5027532;28;20175;-70
2024/02/19 07:59:47;;;;;;;3.57;1.50;;;;;;;-146.29;100.00;59205.81;5030219;28;20330;-70
2024/02/19 08:02:12;;;;;;;5.27;1.70;;;;;;;-146.29;100.00;59205.81;5035455;28;20176;-70
2024/02/19 08:04:38;;;;;;;4.30;1.63;;;;;;;-146.29;100.00;59205.81;5031945;28;20812;-72
2024/02/19 08:07:04;;;;;;;5.30;1.97;;;;;;;-146.29;100.00;59205.81;5027554;28;20180;-71
2024/02/19 08:09:29;;;;;;;2.90;1.27;;;;;;;-146.29;100.00;59205.81;5036539;28;20631;-71
2024/02/19 08:11:57;;;;;;;3.60;1.37;;;;;;;-146.29;100.00;59205.81;5028711;28;20938;-71
2024/02/19 08:14:24;;;;;;;3.50;1.50;;;;;;;-146.29;100.00;59205.81;5026125;28;20249;-71
2024/02/19 08:16:50;;;;;;;3.87;1.37;;;;;;;-146.29;100.00;59205.81;5038864;28;21191;-72
2024/02/19 08:19:16;;;;;;;6.67;1.53;;;;;;;-146.29;100.00;59205.81;5033128;28;20466;-70
2024/02/19 08:21:42;;;;;;;5.90;1.50;;;;;;;-146.29;100.00;59205.81;5028712;28;20192;-71
2024/02/19 08:24:08;;;;;;;2.87;1.40;;;;;;;-146.29;100.00;59205.81;5035443;28;21077;-72
2024/02/19 08:26:34;;;;;;;2.57;1.57;;;;;;;-146.29;100.00;59205.81;5033069;28;20198;-70
2024/02/19 08:28:59;;;;;;;4.23;1.90;;;;;;;-146.29;100.00;59205.81;5030210;28;20454;-70
2024/02/19 08:31:27;;;;;;;2.20;1.50;;;;;;;-146.29;100.00;59205.81;5027152;28;20183;-70
2024/02/19 08:33:54;;;;;;;2.47;1.80;;;;;;;-146.29;100.00;59205.81;5026278;28;20676;-71
2024/02/19 08:36:19;;;;;;;4.87;1.53;;;;;;;-146.29;100.00;59205.81;5025953;28;20458;-70
2024/02/19 08:38:45;;;;;;;2.03;1.30;;;;;;;-146.29;100.00;59205.81;5027693;28;20426;-71
2024/02/19 08:41:10;;;;;;;4.97;1.47;;;;;;;-146.29;100.00;59205.81;5033879;28;20188;-70
2024/02/19 08:43:35;;;;;;;3.13;1.30;;;;;;;-146.29;100.00;59205.81;5025308;28;20183;-71
2024/02/19 08:46:01;;;;;;;5.03;1.20;;;;;;;-146.29;100.00;59205.81;5025667;28;20171;-71
2024/02/19 08:48:26;;;;;;;6.30;1.10;;;;;;;-146.29;100.00;59205.81;5031917;28;20283;-70
2024/02/19 08:50:52;;;;;;;1.80;1.13;;;;;;;-146.29;100.00;59205.81;5029032;28;20180;-71
2024/02/19 08:53:19;;;;;;;3.23;1.20;;;;;;;-146.29;100.00;59205.81;5029303;28;20184;-71
2024/02/19 08:55:44;;;;;;;1.10;1.00;;;;;;;-146.29;100.00;59205.81;5029780;28;20237;-71
2024/02/19 08:58:10;;;;;;;5.03;1.50;;;;;;;-146.29;100.00;59205.81;5031817;28;20504;-71
2024/02/19 09:00:35;;;;;;;2.93;1.40;;;;;;;-146.29;100.00;59205.81;5038522;28;20681;-71
2024/02/19 09:03:01;;;;;;;4.10;1.50;;;;;;;-146.29;100.00;59205.81;5037439;28;20747;-71
2024/02/19 09:05:27;;;;;;;1.70;1.17;;;;;;;-146.29;100.00;59205.81;5029848;28;20686;-70
2024/02/19 09:07:52;;;;;;;2.73;1.10;;;;;;;-146.29;100.00;59205.81;5034147;28;20501;-71
2024/02/19 09:10:17;;;;;;;3.40;1.43;;;;;;;-146.29;100.00;59205.81;5030045;28;20215;-71
2024/02/19 09:12:43;;;;;;;2.10;1.10;;;;;;;-146.29;100.00;59205.81;5033768;28;20193;-71
2024/02/19 09:15:09;;;;;;;4.90;1.50;;;;;;;-146.29;100.00;59205.81;5030081;28;20188;-72
2024/02/19 09:17:34;;;;;;;5.03;1.20;;;;;;;-146.29;100.00;59205.81;5031638;28;20184;-71
2024/02/19 09:20:00;;;;;;;3.20;1.37;;;;;;;-146.29;100.00;59205.81;5011582;28;20204;-71
2024/02/19 09:22:26;;;;;;;1.30;0.90;;;;;;;-146.29;100.00;59205.81;5030126;28;20180;-71
2024/02/19 09:24:52;;;;;;;2.57;1.20;;;;;;;-146.29;100.00;59205.81;5030753;28;20180;-71
2024/02/19 09:27:18;;;;;;;2.03;1.17;;;;;;;-146.29;100.00;59205.81;5030557;28;20414;-70
2024/02/19 09:29:44;;;;;;;4.57;1.50;;;;;;;-146.29;100.00;59205.81;5030035;28;20235;-71
2024/02/19 09:32:10;;;;;;;4.60;1.40;;;;;;;-146.29;100.00;59205.81;5034409;28;20232;-71
2024/02/19 09:34:35;;;;;;;2.27;1.10;;;;;;;-146.29;100.00;59205.81;5030397;28;21197;-71
2024/02/19 09:37:02;;;;;;;1.50;1.10;;;;;;;-146.29;100.00;59205.81;5029868;28;20222;-72
2024/02/19 09:39:28;;;;;;;3.13;0.90;;;;;;;-146.29;100.00;59205.81;5035894;28;20487;-71
2024/02/19 09:41:53;;;;;;;3.17;1.13;;;;;;;-146.29;100.00;59205.81;5033193;28;20434;-71
2024/02/19 09:44:19;;;;;;;2.87;1.20;;;;;;;-146.29;100.00;59205.81;5036524;28;20750;-70
2024/02/19 09:46:45;;;;;;;2.50;1.20;;;;;;;-146.29;100.00;59205.81;5038370;28;20283;-71
2024/02/19 09:49:12;;;;;;;2.93;1.10;;;;;;;-146.29;100.00;59205.81;5043723;28;20461;-70
2024/02/19 09:51:46;;;;;;;5.63;1.20;;;;;;;-146.29;100.00;59205.81;5040080;28;20421;-70
2024/02/19 09:54:13;;;;;;;2.13;1.40;;;;;;;-146.29;100.00;59205.81;5029956;28;21124;-71
2024/02/19 09:56:39;;;;;;;1.60;1.20;;;;;;;-146.29;100.00;59205.81;5036608;28;20987;-70
2024/02/19 09:59:06;;;;;;;3.13;1.30;;;;;;;-146.29;100.00;59205.81;5029394;28;20951;-71
2024/02/19 10:01:31;;;;;;;2.80;1.43;;;;;;;-146.29;100.00;59205.81;5027592;28;20948;-70
2024/02/19 10:03:57;;;;;;;3.20;1.40;;;;;;;-146.29;100.00;59205.81;5034204;28;20426;-71
2024/02/19 10:06:30;;;;;;;1.90;1.30;;;;;;;-146.29;100.00;59205.81;5030074;28;20187;-71
2024/02/19 10:08:57;;;;;;;2.90;1.33;;;;;;;-146.29;100.00;59205.81;5028425;28;20658;-71
2024/02/19 10:11:22;;;;;;;2.53;1.00;;;;;;;-146.29;100.00;59205.81;5036435;28;20426;-70
2024/02/19 10:13:49;;;;;;;1.87;1.10;;;;;;;-146.29;100.00;59205.81;5039104;28;20464;-71
2024/02/19 10:16:14;;;;;;;3.80;1.40;;;;;;;-146.29;100.00;59205.81;5038541;28;20190;-70
2024/02/19 10:18:40;;;;;;;3.07;1.40;;;;;;;-146.29;100.00;59205.81;5032864;28;20526;-71
2024/02/19 10:21:05;;;;;;;4.10;1.33;;;;;;;-146.29;100.00;59205.81;5028533;28;20180;-71
2024/02/19 10:23:31;;;;;;;5.00;1.30;;;;;;;-146.29;100.00;59205.81;5031519;28;20195;-71
2024/02/19 10:25:56;;;;;;;9.73;1.20;;;;;;;-146.29;100.00;59205.81;5028986;28;20195;-71
2024/02/19 10:28:23;;;;;;;2.70;1.20;;;;;;;-146.29;100.00;59205.81;5032276;28;20337;-71
2024/02/19 10:30:50;;;;;;;4.50;1.30;;;;;;;-146.29;100.00;59205.81;5030490;28;20275;-70
2024/02/19 10:33:15;;;;;;;8.77;1.60;;;;;;;-146.29;100.00;59205.81;5040627;28;20432;-70
2024/02/19 10:35:41;;;;;;;3.00;1.30;;;;;;;-146.29;100.00;59205.81;5033062;28;20430;-71
2024/02/19 10:38:08;;;;;;;5.77;1.40;;;;;;;-146.29;100.00;59205.81;5035528;28;20184;-71
2024/02/19 10:40:34;;;;;;;2.93;1.37;;;;;;;-146.29;100.00;59205.81;5034664;28;20446;-71
2024/02/19 10:43:00;;;;;;;4.37;1.60;;;;;;;-146.29;100.00;59205.81;5038140;28;20432;-71
2024/02/19 10:45:25;;;;;;;3.30;1.50;;;;;;;-146.29;100.00;59205.81;5034665;28;20422;-71
2024/02/19 10:47:52;;;;;;;2.40;1.10;;;;;;;-146.29;100.00;59205.81;5018305;28;20195;-70
2024/02/19 10:50:18;;;;;;;3.73;1.27;;;;;;;-146.29;100.00;59205.81;5040857;28;20211;-71
2024/02/19 10:52:44;;;;;;;2.80;1.50;;;;;;;-146.29;100.00;59205.81;5037993;28;20438;-71
2024/02/19 10:55:16;;;;;;;1.67;1.10;;;;;;;-146.29;100.00;59205.81;5034006;28;20199;-71
2024/02/19 10:57:49;;;;;;;3.00;1.10;;;;;;;-146.29;100.00;59205.81;5052061;28;21006;-71
2024/02/19 11:00:16;;;;;;;3.97;1.17;;;;;;;-146.29;100.00;59205.81;5033029;28;20441;-71
2024/02/19 11:02:42;;;;;;;4.50;1.17;;;;;;;-146.29;100.00;59205.81;5027563;28;20427;-71